sensor_id;sensor_type;location;lat;lon;timestamp;temperature;humidity
506;DHT22;551;48.524;9.056;2022-09-25T00:00:12;13.20;1.00
506;DHT22;551;48.524;9.056;2022-09-25T00:02:38;13.20;1.00
506;DHT22;551;48.524;9.056;2022-09-25T00:05:03;13.20;1.00
506;DHT22;551;48.524;9.056;2022-09-25T00:07:29;13.10;1.00
506;DHT22;551;48.524;9.056;2022-09-25T00:09:54;13.10;1.00
506;DHT22;551;48.524;9.056;2022-09-25T00:12:20;13.10;1.00
506;DHT22;551;48.524;9.056;2022-09-25T00:14:49;13.20;1.00
506;DHT22;551;48.524;9.056;2022-09-25T00:17:15;13.00;1.00
506;DHT22;551;48.524;9.056;2022-09-25T00:19:40;13.30;1.00
506;DHT22;551;48.524;9.056;2022-09-25T00:22:19;13.20;1.00
506;DHT22;551;48.524;9.056;2022-09-25T00:24:46;13.20;1.00
506;DHT22;551;48.524;9.056;2022-09-25T00:27:13;13.30;1.00
506;DHT22;551;48.524;9.056;2022-09-25T00:29:39;13.20;1.00
506;DHT22;551;48.524;9.056;2022-09-25T00:32:07;13.20;1.00
506;DHT22;551;48.524;9.056;2022-09-25T00:34:34;13.20;1.00
506;DHT22;551;48.524;9.056;2022-09-25T00:37:00;13.20;1.00
506;DHT22;551;48.524;9.056;2022-09-25T00:39:26;13.30;1.00
506;DHT22;551;48.524;9.056;2022-09-25T00:41:52;13.20;1.00
506;DHT22;551;48.524;9.056;2022-09-25T00:44:56;13.40;1.00
506;DHT22;551;48.524;9.056;2022-09-25T00:47:51;13.30;1.00
506;DHT22;551;48.524;9.056;2022-09-25T00:52:59;13.20;1.00
506;DHT22;551;48.524;9.056;2022-09-25T00:55:29;13.20;1.00
506;DHT22;551;48.524;9.056;2022-09-25T00:57:56;13.20;1.00
506;DHT22;551;48.524;9.056;2022-09-25T01:00:22;13.10;1.00
506;DHT22;551;48.524;9.056;2022-09-25T01:02:51;13.10;1.00
506;DHT22;551;48.524;9.056;2022-09-25T01:05:28;13.10;1.00
506;DHT22;551;48.524;9.056;2022-09-25T01:07:57;13.10;1.00
506;DHT22;551;48.524;9.056;2022-09-25T01:10:24;13.10;1.00
506;DHT22;551;48.524;9.056;2022-09-25T01:12:50;13.20;1.00
506;DHT22;551;48.524;9.056;2022-09-25T01:15:19;13.20;1.00
506;DHT22;551;48.524;9.056;2022-09-25T01:26:30;13.20;1.00
506;DHT22;551;48.524;9.056;2022-09-25T01:29:07;13.10;1.00
506;DHT22;551;48.524;9.056;2022-09-25T01:32:01;13.00;1.00
506;DHT22;551;48.524;9.056;2022-09-25T01:35:07;13.10;1.00
506;DHT22;551;48.524;9.056;2022-09-25T01:37:42;13.10;1.00
506;DHT22;551;48.524;9.056;2022-09-25T01:40:23;13.10;1.00
506;DHT22;551;48.524;9.056;2022-09-25T01:42:56;13.00;1.00
506;DHT22;551;48.524;9.056;2022-09-25T01:45:32;13.00;1.00
506;DHT22;551;48.524;9.056;2022-09-25T01:48:01;12.90;1.00
506;DHT22;551;48.524;9.056;2022-09-25T01:50:35;12.90;1.00
506;DHT22;551;48.524;9.056;2022-09-25T01:53:07;12.90;1.00
506;DHT22;551;48.524;9.056;2022-09-25T01:55:42;12.90;1.00
506;DHT22;551;48.524;9.056;2022-09-25T01:58:35;12.90;1.00
506;DHT22;551;48.524;9.056;2022-09-25T02:01:19;13.00;1.00
506;DHT22;551;48.524;9.056;2022-09-25T02:03:50;12.90;1.00
506;DHT22;551;48.524;9.056;2022-09-25T02:06:20;12.90;1.00
506;DHT22;551;48.524;9.056;2022-09-25T02:08:52;12.90;1.00
506;DHT22;551;48.524;9.056;2022-09-25T02:11:20;12.90;1.00
506;DHT22;551;48.524;9.056;2022-09-25T02:13:53;12.90;1.00
506;DHT22;551;48.524;9.056;2022-09-25T02:16:29;12.90;1.00
506;DHT22;551;48.524;9.056;2022-09-25T02:18:56;12.90;1.00
506;DHT22;551;48.524;9.056;2022-09-25T02:21:49;12.90;1.00
506;DHT22;551;48.524;9.056;2022-09-25T02:24:26;12.90;1.00
506;DHT22;551;48.524;9.056;2022-09-25T02:26:54;12.80;1.00
506;DHT22;551;48.524;9.056;2022-09-25T02:29:20;12.80;1.00
506;DHT22;551;48.524;9.056;2022-09-25T02:31:54;12.90;1.00
506;DHT22;551;48.524;9.056;2022-09-25T02:34:21;12.90;1.00
506;DHT22;551;48.524;9.056;2022-09-25T02:36:47;12.80;1.00
506;DHT22;551;48.524;9.056;2022-09-25T02:39:15;12.70;1.00
506;DHT22;551;48.524;9.056;2022-09-25T02:42:15;12.70;1.00
506;DHT22;551;48.524;9.056;2022-09-25T02:47:38;12.70;1.00
506;DHT22;551;48.524;9.056;2022-09-25T02:50:24;12.70;1.00
506;DHT22;551;48.524;9.056;2022-09-25T02:55:38;12.70;1.00
506;DHT22;551;48.524;9.056;2022-09-25T02:58:18;12.70;1.00
506;DHT22;551;48.524;9.056;2022-09-25T03:00:47;12.60;1.00
506;DHT22;551;48.524;9.056;2022-09-25T03:03:16;12.70;1.00
506;DHT22;551;48.524;9.056;2022-09-25T03:05:44;12.80;1.00
506;DHT22;551;48.524;9.056;2022-09-25T03:08:10;12.70;1.00
506;DHT22;551;48.524;9.056;2022-09-25T03:10:56;12.70;1.00
506;DHT22;551;48.524;9.056;2022-09-25T03:13:24;12.60;1.00
506;DHT22;551;48.524;9.056;2022-09-25T03:15:58;12.60;1.00
506;DHT22;551;48.524;9.056;2022-09-25T03:18:24;12.60;1.00
506;DHT22;551;48.524;9.056;2022-09-25T03:20:51;12.70;1.00
506;DHT22;551;48.524;9.056;2022-09-25T03:23:17;12.60;1.00
506;DHT22;551;48.524;9.056;2022-09-25T03:25:42;12.70;1.00
506;DHT22;551;48.524;9.056;2022-09-25T03:28:09;12.70;1.00
506;DHT22;551;48.524;9.056;2022-09-25T03:30:39;12.60;1.00
506;DHT22;551;48.524;9.056;2022-09-25T03:33:11;12.60;1.00
506;DHT22;551;48.524;9.056;2022-09-25T03:35:38;12.50;1.00
506;DHT22;551;48.524;9.056;2022-09-25T03:38:04;12.40;1.00
506;DHT22;551;48.524;9.056;2022-09-25T03:40:29;12.30;1.00
506;DHT22;551;48.524;9.056;2022-09-25T03:42:55;12.30;1.00
506;DHT22;551;48.524;9.056;2022-09-25T03:45:21;12.20;1.00
506;DHT22;551;48.524;9.056;2022-09-25T03:47:46;12.20;1.00
506;DHT22;551;48.524;9.056;2022-09-25T03:50:12;12.30;1.00
506;DHT22;551;48.524;9.056;2022-09-25T03:52:37;12.40;1.00
506;DHT22;551;48.524;9.056;2022-09-25T03:55:03;12.20;1.00
506;DHT22;551;48.524;9.056;2022-09-25T03:57:30;12.30;1.00
506;DHT22;551;48.524;9.056;2022-09-25T03:59:55;12.40;1.00
506;DHT22;551;48.524;9.056;2022-09-25T04:02:26;12.20;1.00
506;DHT22;551;48.524;9.056;2022-09-25T04:04:52;12.40;1.00
506;DHT22;551;48.524;9.056;2022-09-25T04:07:19;12.40;1.00
506;DHT22;551;48.524;9.056;2022-09-25T04:09:45;12.40;1.00
506;DHT22;551;48.524;9.056;2022-09-25T04:12:10;12.30;1.00
506;DHT22;551;48.524;9.056;2022-09-25T04:14:36;12.30;1.00
506;DHT22;551;48.524;9.056;2022-09-25T04:17:01;12.40;1.00
506;DHT22;551;48.524;9.056;2022-09-25T04:19:27;12.40;1.00
506;DHT22;551;48.524;9.056;2022-09-25T04:21:55;12.60;1.00
506;DHT22;551;48.524;9.056;2022-09-25T04:24:21;12.50;1.00
506;DHT22;551;48.524;9.056;2022-09-25T04:27:18;12.40;1.00
506;DHT22;551;48.524;9.056;2022-09-25T04:29:45;12.30;1.00
506;DHT22;551;48.524;9.056;2022-09-25T04:32:11;12.40;1.00
506;DHT22;551;48.524;9.056;2022-09-25T04:35:03;12.40;1.00
506;DHT22;551;48.524;9.056;2022-09-25T04:37:29;12.30;1.00
506;DHT22;551;48.524;9.056;2022-09-25T04:39:56;12.20;1.00
506;DHT22;551;48.524;9.056;2022-09-25T04:42:22;12.20;1.00
506;DHT22;551;48.524;9.056;2022-09-25T04:44:52;12.10;1.00
506;DHT22;551;48.524;9.056;2022-09-25T04:47:19;12.00;1.00
506;DHT22;551;48.524;9.056;2022-09-25T04:49:45;12.00;1.00
506;DHT22;551;48.524;9.056;2022-09-25T04:52:12;12.10;1.00
506;DHT22;551;48.524;9.056;2022-09-25T04:54:39;12.00;1.00
506;DHT22;551;48.524;9.056;2022-09-25T04:57:04;12.00;1.00
506;DHT22;551;48.524;9.056;2022-09-25T05:01:56;12.00;1.00
506;DHT22;551;48.524;9.056;2022-09-25T05:04:22;11.90;1.00
506;DHT22;551;48.524;9.056;2022-09-25T05:06:48;12.10;1.00
506;DHT22;551;48.524;9.056;2022-09-25T05:09:13;12.00;1.00
506;DHT22;551;48.524;9.056;2022-09-25T05:11:38;12.00;1.00
506;DHT22;551;48.524;9.056;2022-09-25T05:14:04;11.90;1.00
506;DHT22;551;48.524;9.056;2022-09-25T05:16:30;12.00;1.00
506;DHT22;551;48.524;9.056;2022-09-25T05:18:55;12.10;1.00
506;DHT22;551;48.524;9.056;2022-09-25T05:21:21;11.90;1.00
506;DHT22;551;48.524;9.056;2022-09-25T05:23:47;11.90;1.00
506;DHT22;551;48.524;9.056;2022-09-25T05:26:12;12.00;1.00
506;DHT22;551;48.524;9.056;2022-09-25T05:28:38;11.90;1.00
506;DHT22;551;48.524;9.056;2022-09-25T05:31:04;11.90;1.00
506;DHT22;551;48.524;9.056;2022-09-25T05:33:31;11.90;1.00
506;DHT22;551;48.524;9.056;2022-09-25T05:36:04;11.90;1.00
506;DHT22;551;48.524;9.056;2022-09-25T05:38:31;12.00;1.00
506;DHT22;551;48.524;9.056;2022-09-25T05:41:03;12.00;1.00
506;DHT22;551;48.524;9.056;2022-09-25T05:43:31;12.20;1.00
506;DHT22;551;48.524;9.056;2022-09-25T05:45:57;11.90;1.00
506;DHT22;551;48.524;9.056;2022-09-25T05:48:23;12.00;1.00
506;DHT22;551;48.524;9.056;2022-09-25T05:50:52;12.10;1.00
506;DHT22;551;48.524;9.056;2022-09-25T05:53:18;12.00;1.00
506;DHT22;551;48.524;9.056;2022-09-25T05:56:13;12.10;1.00
506;DHT22;551;48.524;9.056;2022-09-25T05:58:41;12.10;1.00
506;DHT22;551;48.524;9.056;2022-09-25T06:01:06;12.10;1.00
506;DHT22;551;48.524;9.056;2022-09-25T06:03:32;12.30;1.00
506;DHT22;551;48.524;9.056;2022-09-25T06:05:58;12.30;1.00
506;DHT22;551;48.524;9.056;2022-09-25T06:08:25;12.30;1.00
506;DHT22;551;48.524;9.056;2022-09-25T06:10:52;12.40;1.00
506;DHT22;551;48.524;9.056;2022-09-25T06:13:19;12.40;1.00
506;DHT22;551;48.524;9.056;2022-09-25T06:15:45;12.40;1.00
506;DHT22;551;48.524;9.056;2022-09-25T06:18:12;12.40;1.00
506;DHT22;551;48.524;9.056;2022-09-25T06:20:38;12.70;1.00
506;DHT22;551;48.524;9.056;2022-09-25T06:23:03;12.80;1.00
506;DHT22;551;48.524;9.056;2022-09-25T06:25:30;12.90;1.00
506;DHT22;551;48.524;9.056;2022-09-25T06:27:59;12.90;1.00
506;DHT22;551;48.524;9.056;2022-09-25T06:30:27;13.00;1.00
506;DHT22;551;48.524;9.056;2022-09-25T06:32:59;13.00;1.00
506;DHT22;551;48.524;9.056;2022-09-25T06:35:25;13.10;1.00
506;DHT22;551;48.524;9.056;2022-09-25T06:37:52;13.10;1.00
506;DHT22;551;48.524;9.056;2022-09-25T06:40:20;13.20;1.00
506;DHT22;551;48.524;9.056;2022-09-25T06:42:46;13.20;1.00
506;DHT22;551;48.524;9.056;2022-09-25T06:45:11;13.40;1.00
506;DHT22;551;48.524;9.056;2022-09-25T06:47:37;13.40;1.00
506;DHT22;551;48.524;9.056;2022-09-25T06:50:02;13.50;1.00
506;DHT22;551;48.524;9.056;2022-09-25T06:52:28;13.60;1.00
506;DHT22;551;48.524;9.056;2022-09-25T06:54:54;13.70;1.00
506;DHT22;551;48.524;9.056;2022-09-25T06:57:19;13.70;1.00
506;DHT22;551;48.524;9.056;2022-09-25T06:59:44;13.70;1.00
506;DHT22;551;48.524;9.056;2022-09-25T07:02:10;13.80;1.00
506;DHT22;551;48.524;9.056;2022-09-25T07:04:54;13.80;1.00
506;DHT22;551;48.524;9.056;2022-09-25T07:07:20;13.90;1.00
506;DHT22;551;48.524;9.056;2022-09-25T07:09:46;13.80;1.00
506;DHT22;551;48.524;9.056;2022-09-25T07:12:13;14.00;1.00
506;DHT22;551;48.524;9.056;2022-09-25T07:14:39;14.00;1.00
506;DHT22;551;48.524;9.056;2022-09-25T07:17:08;14.30;1.00
506;DHT22;551;48.524;9.056;2022-09-25T07:19:33;14.80;1.00
506;DHT22;551;48.524;9.056;2022-09-25T07:21:59;15.30;1.00
506;DHT22;551;48.524;9.056;2022-09-25T07:24:24;15.30;1.00
506;DHT22;551;48.524;9.056;2022-09-25T07:26:50;15.20;1.00
506;DHT22;551;48.524;9.056;2022-09-25T07:29:18;15.20;1.00
506;DHT22;551;48.524;9.056;2022-09-25T07:31:43;15.10;1.00
506;DHT22;551;48.524;9.056;2022-09-25T07:34:09;15.00;1.00
506;DHT22;551;48.524;9.056;2022-09-25T07:36:36;15.20;1.00
506;DHT22;551;48.524;9.056;2022-09-25T07:39:05;15.20;1.00
506;DHT22;551;48.524;9.056;2022-09-25T07:41:31;15.20;1.00
506;DHT22;551;48.524;9.056;2022-09-25T07:43:57;14.80;1.00
506;DHT22;551;48.524;9.056;2022-09-25T07:46:26;15.00;1.00
506;DHT22;551;48.524;9.056;2022-09-25T07:48:53;15.00;1.00
506;DHT22;551;48.524;9.056;2022-09-25T07:51:18;15.00;1.00
506;DHT22;551;48.524;9.056;2022-09-25T07:53:46;15.00;1.00
506;DHT22;551;48.524;9.056;2022-09-25T07:56:12;15.20;1.00
506;DHT22;551;48.524;9.056;2022-09-25T07:58:38;15.20;1.00
506;DHT22;551;48.524;9.056;2022-09-25T08:01:06;15.40;1.00
506;DHT22;551;48.524;9.056;2022-09-25T08:03:32;15.50;1.00
506;DHT22;551;48.524;9.056;2022-09-25T08:06:06;15.60;1.00
506;DHT22;551;48.524;9.056;2022-09-25T08:08:34;15.60;1.00
506;DHT22;551;48.524;9.056;2022-09-25T08:11:04;15.80;1.00
506;DHT22;551;48.524;9.056;2022-09-25T08:13:34;15.90;1.00
506;DHT22;551;48.524;9.056;2022-09-25T08:16:04;16.00;1.00
506;DHT22;551;48.524;9.056;2022-09-25T08:18:29;16.10;1.00
506;DHT22;551;48.524;9.056;2022-09-25T08:21:00;16.10;1.00
506;DHT22;551;48.524;9.056;2022-09-25T08:23:26;16.20;1.00
506;DHT22;551;48.524;9.056;2022-09-25T08:25:52;16.60;1.00
506;DHT22;551;48.524;9.056;2022-09-25T08:28:17;16.80;1.00
506;DHT22;551;48.524;9.056;2022-09-25T08:30:43;16.90;1.00
506;DHT22;551;48.524;9.056;2022-09-25T08:33:09;17.20;1.00
506;DHT22;551;48.524;9.056;2022-09-25T08:35:37;17.40;1.00
506;DHT22;551;48.524;9.056;2022-09-25T08:38:03;17.50;1.00
506;DHT22;551;48.524;9.056;2022-09-25T08:40:31;17.80;1.00
506;DHT22;551;48.524;9.056;2022-09-25T08:42:57;17.90;1.00
506;DHT22;551;48.524;9.056;2022-09-25T08:45:30;17.90;1.00
506;DHT22;551;48.524;9.056;2022-09-25T08:48:23;17.90;1.00
506;DHT22;551;48.524;9.056;2022-09-25T08:51:08;17.90;1.00
506;DHT22;551;48.524;9.056;2022-09-25T08:53:35;17.80;1.00
506;DHT22;551;48.524;9.056;2022-09-25T08:56:03;17.80;1.00
506;DHT22;551;48.524;9.056;2022-09-25T08:58:46;17.80;1.00
506;DHT22;551;48.524;9.056;2022-09-25T09:01:59;17.70;1.00
506;DHT22;551;48.524;9.056;2022-09-25T09:04:12;17.90;1.00
506;DHT22;551;48.524;9.056;2022-09-25T09:06:40;17.90;1.00
506;DHT22;551;48.524;9.056;2022-09-25T09:09:18;18.00;1.00
506;DHT22;551;48.524;9.056;2022-09-25T09:11:50;18.00;1.00
506;DHT22;551;48.524;9.056;2022-09-25T09:14:20;18.10;1.00
506;DHT22;551;48.524;9.056;2022-09-25T09:16:59;18.10;1.00
506;DHT22;551;48.524;9.056;2022-09-25T09:19:25;18.30;1.00
506;DHT22;551;48.524;9.056;2022-09-25T09:21:53;18.40;1.00
506;DHT22;551;48.524;9.056;2022-09-25T09:24:49;18.50;1.00
506;DHT22;551;48.524;9.056;2022-09-25T09:38:30;20.20;1.00
506;DHT22;551;48.524;9.056;2022-09-25T09:44:19;20.20;1.00
506;DHT22;551;48.524;9.056;2022-09-25T09:50:16;20.00;1.00
506;DHT22;551;48.524;9.056;2022-09-25T09:52:44;20.20;1.00
506;DHT22;551;48.524;9.056;2022-09-25T09:55:36;20.10;1.00
506;DHT22;551;48.524;9.056;2022-09-25T09:58:11;20.60;1.00
506;DHT22;551;48.524;9.056;2022-09-25T10:00:39;21.00;1.00
506;DHT22;551;48.524;9.056;2022-09-25T10:03:21;21.10;1.00
506;DHT22;551;48.524;9.056;2022-09-25T10:05:52;21.00;1.00
506;DHT22;551;48.524;9.056;2022-09-25T10:08:19;21.10;1.00
506;DHT22;551;48.524;9.056;2022-09-25T10:10:48;21.40;1.00
506;DHT22;551;48.524;9.056;2022-09-25T10:15:49;22.00;1.00
506;DHT22;551;48.524;9.056;2022-09-25T10:18:18;21.90;1.00
506;DHT22;551;48.524;9.056;2022-09-25T10:20:54;21.70;1.00
506;DHT22;551;48.524;9.056;2022-09-25T10:23:46;21.50;1.00
506;DHT22;551;48.524;9.056;2022-09-25T10:26:30;21.50;1.00
506;DHT22;551;48.524;9.056;2022-09-25T10:29:04;21.70;1.00
506;DHT22;551;48.524;9.056;2022-09-25T10:31:35;22.20;1.00
506;DHT22;551;48.524;9.056;2022-09-25T10:34:22;23.40;1.00
506;DHT22;551;48.524;9.056;2022-09-25T10:36:50;23.90;1.00
506;DHT22;551;48.524;9.056;2022-09-25T10:39:31;23.80;1.00
506;DHT22;551;48.524;9.056;2022-09-25T10:41:58;23.60;1.00
506;DHT22;551;48.524;9.056;2022-09-25T10:44:35;23.10;1.00
506;DHT22;551;48.524;9.056;2022-09-25T10:50:13;21.90;1.00
506;DHT22;551;48.524;9.056;2022-09-25T10:52:53;21.20;1.00
506;DHT22;551;48.524;9.056;2022-09-25T10:55:34;20.80;1.00
506;DHT22;551;48.524;9.056;2022-09-25T10:58:12;20.30;1.00
506;DHT22;551;48.524;9.056;2022-09-25T11:00:51;19.90;1.00
506;DHT22;551;48.524;9.056;2022-09-25T11:03:28;19.70;1.00
506;DHT22;551;48.524;9.056;2022-09-25T11:08:35;19.10;1.00
506;DHT22;551;48.524;9.056;2022-09-25T11:11:03;19.00;1.00
506;DHT22;551;48.524;9.056;2022-09-25T11:13:34;18.80;1.00
506;DHT22;551;48.524;9.056;2022-09-25T11:16:06;18.50;1.00
506;DHT22;551;48.524;9.056;2022-09-25T11:18:41;18.30;1.00
506;DHT22;551;48.524;9.056;2022-09-25T11:24:17;18.00;1.00
506;DHT22;551;48.524;9.056;2022-09-25T11:26:56;18.00;1.00
506;DHT22;551;48.524;9.056;2022-09-25T11:32:46;17.60;1.00
506;DHT22;551;48.524;9.056;2022-09-25T11:35:32;17.60;1.00
506;DHT22;551;48.524;9.056;2022-09-25T11:38:45;17.60;1.00
506;DHT22;551;48.524;9.056;2022-09-25T11:41:37;17.40;1.00
506;DHT22;551;48.524;9.056;2022-09-25T11:49:38;17.00;1.00
506;DHT22;551;48.524;9.056;2022-09-25T11:52:37;17.00;1.00
506;DHT22;551;48.524;9.056;2022-09-25T11:58:14;17.00;1.00
506;DHT22;551;48.524;9.056;2022-09-25T12:06:55;17.20;1.00
506;DHT22;551;48.524;9.056;2022-09-25T12:20:57;18.20;1.00
506;DHT22;551;48.524;9.056;2022-09-25T12:23:32;18.60;1.00
506;DHT22;551;48.524;9.056;2022-09-25T12:26:15;18.90;1.00
506;DHT22;551;48.524;9.056;2022-09-25T12:31:44;19.90;1.00
506;DHT22;551;48.524;9.056;2022-09-25T12:34:28;20.70;1.00
506;DHT22;551;48.524;9.056;2022-09-25T12:37:15;21.20;1.00
506;DHT22;551;48.524;9.056;2022-09-25T12:39:48;21.30;1.00
506;DHT22;551;48.524;9.056;2022-09-25T12:42:20;21.30;1.00
506;DHT22;551;48.524;9.056;2022-09-25T12:44:56;21.20;1.00
506;DHT22;551;48.524;9.056;2022-09-25T12:50:12;21.20;1.00
506;DHT22;551;48.524;9.056;2022-09-25T12:55:33;21.20;1.00
506;DHT22;551;48.524;9.056;2022-09-25T12:58:24;21.10;1.00
506;DHT22;551;48.524;9.056;2022-09-25T13:01:04;20.80;1.00
506;DHT22;551;48.524;9.056;2022-09-25T13:03:56;21.00;1.00
506;DHT22;551;48.524;9.056;2022-09-25T13:06:35;21.10;1.00
506;DHT22;551;48.524;9.056;2022-09-25T13:09:13;21.10;1.00
506;DHT22;551;48.524;9.056;2022-09-25T13:12:02;21.10;1.00
506;DHT22;551;48.524;9.056;2022-09-25T13:14:38;21.20;1.00
506;DHT22;551;48.524;9.056;2022-09-25T13:17:10;21.20;1.00
506;DHT22;551;48.524;9.056;2022-09-25T13:19:36;21.20;1.00
506;DHT22;551;48.524;9.056;2022-09-25T13:22:22;21.30;1.00
506;DHT22;551;48.524;9.056;2022-09-25T13:25:00;21.40;1.00
506;DHT22;551;48.524;9.056;2022-09-25T13:27:29;21.90;1.00
506;DHT22;551;48.524;9.056;2022-09-25T13:29:58;22.30;1.00
506;DHT22;551;48.524;9.056;2022-09-25T13:32:27;22.30;1.00
506;DHT22;551;48.524;9.056;2022-09-25T13:35:04;22.30;1.00
506;DHT22;551;48.524;9.056;2022-09-25T13:37:37;22.10;1.00
506;DHT22;551;48.524;9.056;2022-09-25T13:40:18;22.10;1.00
506;DHT22;551;48.524;9.056;2022-09-25T13:43:26;21.90;1.00
506;DHT22;551;48.524;9.056;2022-09-25T13:48:48;21.60;1.00
506;DHT22;551;48.524;9.056;2022-09-25T13:54:00;20.90;1.00
506;DHT22;551;48.524;9.056;2022-09-25T13:56:45;20.70;1.00
506;DHT22;551;48.524;9.056;2022-09-25T14:01:41;20.60;1.00
506;DHT22;551;48.524;9.056;2022-09-25T14:04:22;20.70;1.00
506;DHT22;551;48.524;9.056;2022-09-25T14:06:52;20.60;1.00
506;DHT22;551;48.524;9.056;2022-09-25T14:09:23;20.50;1.00
506;DHT22;551;48.524;9.056;2022-09-25T14:12:06;20.60;1.00
506;DHT22;551;48.524;9.056;2022-09-25T14:14:39;20.60;1.00
506;DHT22;551;48.524;9.056;2022-09-25T14:17:14;20.80;1.00
506;DHT22;551;48.524;9.056;2022-09-25T14:19:43;20.90;1.00
506;DHT22;551;48.524;9.056;2022-09-25T14:25:00;20.80;1.00
506;DHT22;551;48.524;9.056;2022-09-25T14:27:26;20.90;1.00
506;DHT22;551;48.524;9.056;2022-09-25T14:30:19;20.80;1.00
506;DHT22;551;48.524;9.056;2022-09-25T14:33:14;20.80;1.00
506;DHT22;551;48.524;9.056;2022-09-25T14:35:54;20.90;1.00
506;DHT22;551;48.524;9.056;2022-09-25T14:38:51;20.80;1.00
506;DHT22;551;48.524;9.056;2022-09-25T14:41:53;20.70;1.00
506;DHT22;551;48.524;9.056;2022-09-25T14:47:38;20.40;1.00
506;DHT22;551;48.524;9.056;2022-09-25T14:50:28;20.10;1.00
506;DHT22;551;48.524;9.056;2022-09-25T14:52:57;20.00;1.00
506;DHT22;551;48.524;9.056;2022-09-25T14:55:41;19.80;1.00
506;DHT22;551;48.524;9.056;2022-09-25T14:58:14;19.70;1.00
506;DHT22;551;48.524;9.056;2022-09-25T15:00:51;19.60;1.00
506;DHT22;551;48.524;9.056;2022-09-25T15:03:21;19.50;1.00
506;DHT22;551;48.524;9.056;2022-09-25T15:05:49;19.30;1.00
506;DHT22;551;48.524;9.056;2022-09-25T15:08:42;19.20;1.00
506;DHT22;551;48.524;9.056;2022-09-25T15:13:36;19.10;1.00
506;DHT22;551;48.524;9.056;2022-09-25T15:16:02;18.90;1.00
506;DHT22;551;48.524;9.056;2022-09-25T15:18:53;18.80;1.00
506;DHT22;551;48.524;9.056;2022-09-25T15:21:31;18.70;1.00
506;DHT22;551;48.524;9.056;2022-09-25T15:24:01;18.60;1.00
506;DHT22;551;48.524;9.056;2022-09-25T15:26:28;18.40;1.00
506;DHT22;551;48.524;9.056;2022-09-25T15:28:54;18.30;1.00
506;DHT22;551;48.524;9.056;2022-09-25T15:31:20;18.30;1.00
506;DHT22;551;48.524;9.056;2022-09-25T15:34:03;18.20;1.00
506;DHT22;551;48.524;9.056;2022-09-25T15:36:34;18.30;1.00
506;DHT22;551;48.524;9.056;2022-09-25T15:39:06;18.50;1.00
506;DHT22;551;48.524;9.056;2022-09-25T15:41:34;18.60;1.00
506;DHT22;551;48.524;9.056;2022-09-25T15:44:23;18.60;1.00
506;DHT22;551;48.524;9.056;2022-09-25T15:46:54;18.40;1.00
506;DHT22;551;48.524;9.056;2022-09-25T15:49:27;18.30;1.00
506;DHT22;551;48.524;9.056;2022-09-25T15:51:57;18.10;1.00
506;DHT22;551;48.524;9.056;2022-09-25T15:56:57;17.80;1.00
506;DHT22;551;48.524;9.056;2022-09-25T15:59:47;17.70;1.00
506;DHT22;551;48.524;9.056;2022-09-25T16:02:34;17.70;1.00
506;DHT22;551;48.524;9.056;2022-09-25T16:05:27;17.80;1.00
506;DHT22;551;48.524;9.056;2022-09-25T16:08:35;17.80;1.00
506;DHT22;551;48.524;9.056;2022-09-25T16:11:23;17.70;1.00
506;DHT22;551;48.524;9.056;2022-09-25T16:13:50;17.60;1.00
506;DHT22;551;48.524;9.056;2022-09-25T16:18:45;17.50;1.00
506;DHT22;551;48.524;9.056;2022-09-25T16:23:42;17.30;1.00
506;DHT22;551;48.524;9.056;2022-09-25T16:26:19;17.30;1.00
506;DHT22;551;48.524;9.056;2022-09-25T16:31:39;17.10;1.00
506;DHT22;551;48.524;9.056;2022-09-25T16:34:07;17.10;1.00
506;DHT22;551;48.524;9.056;2022-09-25T16:36:41;17.00;1.00
506;DHT22;551;48.524;9.056;2022-09-25T16:41:34;16.90;1.00
506;DHT22;551;48.524;9.056;2022-09-25T16:49:19;16.60;1.00
506;DHT22;551;48.524;9.056;2022-09-25T16:51:45;16.50;1.00
506;DHT22;551;48.524;9.056;2022-09-25T16:54:13;16.40;1.00
506;DHT22;551;48.524;9.056;2022-09-25T16:56:40;16.40;1.00
506;DHT22;551;48.524;9.056;2022-09-25T16:59:19;16.40;1.00
506;DHT22;551;48.524;9.056;2022-09-25T17:01:48;16.30;1.00
506;DHT22;551;48.524;9.056;2022-09-25T17:04:20;16.30;1.00
506;DHT22;551;48.524;9.056;2022-09-25T17:06:46;16.30;1.00
506;DHT22;551;48.524;9.056;2022-09-25T17:09:14;16.30;1.00
506;DHT22;551;48.524;9.056;2022-09-25T17:11:43;16.20;1.00
506;DHT22;551;48.524;9.056;2022-09-25T17:14:20;16.10;1.00
506;DHT22;551;48.524;9.056;2022-09-25T17:16:48;16.00;1.00
506;DHT22;551;48.524;9.056;2022-09-25T17:19:14;15.80;1.00
506;DHT22;551;48.524;9.056;2022-09-25T17:21:47;15.70;1.00
506;DHT22;551;48.524;9.056;2022-09-25T17:24:16;15.70;1.00
506;DHT22;551;48.524;9.056;2022-09-25T17:26:42;15.60;1.00
506;DHT22;551;48.524;9.056;2022-09-25T17:29:08;15.40;1.00
506;DHT22;551;48.524;9.056;2022-09-25T17:31:33;15.30;1.00
506;DHT22;551;48.524;9.056;2022-09-25T17:34:00;15.20;1.00
506;DHT22;551;48.524;9.056;2022-09-25T17:36:25;15.00;1.00
506;DHT22;551;48.524;9.056;2022-09-25T17:38:51;14.90;1.00
506;DHT22;551;48.524;9.056;2022-09-25T17:41:26;14.80;1.00
506;DHT22;551;48.524;9.056;2022-09-25T17:43:53;14.70;1.00
506;DHT22;551;48.524;9.056;2022-09-25T17:46:18;14.50;1.00
506;DHT22;551;48.524;9.056;2022-09-25T17:48:45;14.40;1.00
506;DHT22;551;48.524;9.056;2022-09-25T17:51:17;14.40;1.00
506;DHT22;551;48.524;9.056;2022-09-25T17:53:44;14.30;1.00
506;DHT22;551;48.524;9.056;2022-09-25T17:56:10;14.20;1.00
506;DHT22;551;48.524;9.056;2022-09-25T17:58:36;14.20;1.00
506;DHT22;551;48.524;9.056;2022-09-25T18:01:02;14.20;1.00
506;DHT22;551;48.524;9.056;2022-09-25T18:03:31;14.10;1.00
506;DHT22;551;48.524;9.056;2022-09-25T18:05:57;14.10;1.00
506;DHT22;551;48.524;9.056;2022-09-25T18:08:23;14.10;1.00
506;DHT22;551;48.524;9.056;2022-09-25T18:10:53;14.10;1.00
506;DHT22;551;48.524;9.056;2022-09-25T18:13:19;14.20;1.00
506;DHT22;551;48.524;9.056;2022-09-25T18:15:56;14.20;1.00
506;DHT22;551;48.524;9.056;2022-09-25T18:18:23;14.30;1.00
506;DHT22;551;48.524;9.056;2022-09-25T18:20:49;14.30;1.00
506;DHT22;551;48.524;9.056;2022-09-25T18:23:33;14.30;1.00
506;DHT22;551;48.524;9.056;2022-09-25T18:26:02;14.30;1.00
506;DHT22;551;48.524;9.056;2022-09-25T18:28:28;14.30;1.00
506;DHT22;551;48.524;9.056;2022-09-25T18:30:55;14.40;1.00
506;DHT22;551;48.524;9.056;2022-09-25T18:33:25;14.40;1.00
506;DHT22;551;48.524;9.056;2022-09-25T18:35:51;14.40;1.00
506;DHT22;551;48.524;9.056;2022-09-25T18:38:17;14.40;1.00
506;DHT22;551;48.524;9.056;2022-09-25T18:40:42;14.30;1.00
506;DHT22;551;48.524;9.056;2022-09-25T18:43:09;14.30;1.00
506;DHT22;551;48.524;9.056;2022-09-25T18:45:34;14.30;1.00
506;DHT22;551;48.524;9.056;2022-09-25T18:48:00;14.30;1.00
506;DHT22;551;48.524;9.056;2022-09-25T18:50:27;14.30;1.00
506;DHT22;551;48.524;9.056;2022-09-25T18:52:53;14.30;1.00
506;DHT22;551;48.524;9.056;2022-09-25T18:55:19;14.20;1.00
506;DHT22;551;48.524;9.056;2022-09-25T18:57:44;14.20;1.00
506;DHT22;551;48.524;9.056;2022-09-25T19:00:10;14.20;1.00
506;DHT22;551;48.524;9.056;2022-09-25T19:02:36;14.30;1.00
506;DHT22;551;48.524;9.056;2022-09-25T19:05:04;14.30;1.00
506;DHT22;551;48.524;9.056;2022-09-25T19:07:30;14.30;1.00
506;DHT22;551;48.524;9.056;2022-09-25T19:09:56;14.40;1.00
506;DHT22;551;48.524;9.056;2022-09-25T19:12:23;14.40;1.00
506;DHT22;551;48.524;9.056;2022-09-25T19:14:49;14.50;1.00
506;DHT22;551;48.524;9.056;2022-09-25T19:17:16;14.40;1.00
506;DHT22;551;48.524;9.056;2022-09-25T19:19:43;14.40;1.00
506;DHT22;551;48.524;9.056;2022-09-25T19:22:17;14.50;1.00